createdAt,value
2018-02-17T00:00:01.941Z,98927.98
2018-02-17T00:02:29.703Z,98929.52
2018-02-17T00:04:57.380Z,98926.77
2018-02-17T00:07:25.150Z,98920.20
2018-02-17T00:09:52.843Z,98913.81
2018-02-17T00:12:20.552Z,98912.27
2018-02-17T00:14:48.232Z,98905.75
2018-02-17T00:17:16.156Z,98901.38
2018-02-17T00:19:43.860Z,98906.44
2018-02-17T00:22:11.586Z,98908.64
2018-02-17T00:24:39.303Z,98896.98
2018-02-17T00:27:07.012Z,98908.20
2018-02-17T00:29:34.743Z,98897.11
2018-02-17T00:32:02.441Z,98898.85
2018-02-17T00:34:30.328Z,98895.27
2018-02-17T00:36:58.027Z,98900.92
2018-02-17T00:39:25.744Z,98898.20
2018-02-17T00:41:53.450Z,98896.75
2018-02-17T00:44:21.157Z,98886.17
2018-02-17T00:46:48.894Z,98894.34
2018-02-17T00:49:16.572Z,98885.16
2018-02-17T00:51:44.301Z,98881.58
2018-02-17T00:54:12.023Z,98876.77
2018-02-17T00:56:39.918Z,98880.16
2018-02-17T00:59:07.614Z,98883.23
2018-02-17T01:01:35.296Z,98876.44
2018-02-17T01:04:03.111Z,98880.59
2018-02-17T01:06:30.795Z,98873.61
2018-02-17T01:08:58.544Z,98878.61
2018-02-17T01:11:26.226Z,98881.98
2018-02-17T01:13:54.053Z,98870.41
2018-02-17T01:16:21.760Z,98875.63
2018-02-17T01:18:50.526Z,98876.56
2018-02-17T01:21:18.246Z,98868.77
2018-02-17T01:23:45.933Z,98870.20
2018-02-17T01:26:13.640Z,98868.59
2018-02-17T01:28:41.345Z,98867.11
2018-02-17T01:31:09.346Z,98874.41
2018-02-17T01:33:37.052Z,98866.05
2018-02-17T01:36:04.743Z,98859.67
2018-02-17T01:38:32.460Z,98857.09
2018-02-17T01:41:00.142Z,98855.99
2018-02-17T01:43:27.849Z,98850.86
2018-02-17T01:45:55.544Z,98848.80
2018-02-17T01:48:23.260Z,98834.43
2018-02-17T01:50:51.712Z,98830.17
2018-02-17T01:53:19.385Z,98831.09
2018-02-17T01:55:47.180Z,98831.58
2018-02-17T01:58:14.876Z,98836.26
2018-02-17T02:00:42.580Z,98828.42
2018-02-17T02:03:10.290Z,98832.12
2018-02-17T02:05:38.164Z,98830.67
2018-02-17T02:08:05.858Z,98821.72
2018-02-17T02:10:33.534Z,98809.10
2018-02-17T02:13:01.240Z,98806.10
2018-02-17T02:15:28.937Z,98803.09
2018-02-17T02:17:56.641Z,98799.80
2018-02-17T02:20:24.328Z,98780.13
2018-02-17T02:22:52.064Z,98767.70
2018-02-17T02:25:19.746Z,98773.76
2018-02-17T02:27:47.424Z,98768.57
2018-02-17T02:30:15.131Z,98770.62
2018-02-17T02:32:42.811Z,98759.48
2018-02-17T02:35:10.510Z,98754.17
2018-02-17T02:37:38.202Z,98752.17
2018-02-17T02:40:06.157Z,98752.77
2018-02-17T02:42:33.832Z,98751.91
2018-02-17T02:45:01.522Z,98749.28
2018-02-17T02:47:29.235Z,98740.33
2018-02-17T02:49:56.920Z,98731.94
2018-02-17T02:52:24.631Z,98723.08
2018-02-17T02:54:52.315Z,98715.48
2018-02-17T02:57:20.204Z,98711.13
2018-02-17T02:59:47.900Z,98704.92
2018-02-17T03:02:15.578Z,98704.51
2018-02-17T03:04:43.314Z,98697.13
2018-02-17T03:07:10.984Z,98702.92
2018-02-17T03:09:38.698Z,98701.12
2018-02-17T03:12:06.388Z,98698.58
2018-02-17T03:14:34.123Z,98691.20
2018-02-17T03:17:01.819Z,98687.00
2018-02-17T03:19:29.504Z,98674.36
2018-02-17T03:21:57.226Z,98680.84
2018-02-17T03:24:24.918Z,98684.09
2018-02-17T03:26:52.633Z,98689.30
2018-02-17T03:29:20.318Z,98707.20
2018-02-17T03:31:48.028Z,98718.75
2018-02-17T03:34:15.700Z,98723.09
2018-02-17T03:36:43.372Z,98725.80
2018-02-17T03:39:11.099Z,98727.48
2018-02-17T03:41:38.804Z,98722.45
2018-02-17T03:44:06.542Z,98731.53
2018-02-17T03:46:34.222Z,98724.20
2018-02-17T03:49:01.962Z,98720.39
2018-02-17T03:51:29.636Z,98715.97
2018-02-17T03:53:57.313Z,98718.75
2018-02-17T03:56:25.020Z,98720.94
2018-02-17T03:58:52.702Z,98716.08
2018-02-17T04:01:20.397Z,98710.03
2018-02-17T04:03:48.086Z,98708.14
2018-02-17T04:06:15.838Z,98705.94
2018-02-17T04:08:43.551Z,98699.93
2018-02-17T04:11:11.223Z,98688.34
2018-02-17T04:13:38.965Z,98689.41
2018-02-17T04:16:06.640Z,98685.38
2018-02-17T04:18:34.388Z,98682.37
2018-02-17T04:21:02.111Z,98686.84
2018-02-17T04:23:30.004Z,98688.48
2018-02-17T04:25:57.735Z,98699.13
2018-02-17T04:28:25.413Z,98700.11
2018-02-17T04:30:53.177Z,98689.44
2018-02-17T04:33:20.835Z,98698.03
2018-02-17T04:35:48.517Z,98688.57
2018-02-17T04:38:16.199Z,98678.58
2018-02-17T04:40:49.293Z,98667.08
2018-02-17T04:43:17.819Z,98666.98
2018-02-17T04:45:45.836Z,98665.02
2018-02-17T04:48:18.876Z,98661.23
2018-02-17T04:50:52.221Z,98650.53
2018-02-17T04:53:20.226Z,98629.48
2018-02-17T04:56:00.644Z,98620.74
2018-02-17T04:58:31.163Z,98608.95
2018-02-17T05:00:59.647Z,98602.77
2018-02-17T05:03:39.072Z,98594.88
2018-02-17T05:06:06.769Z,98587.47
2018-02-17T05:08:34.876Z,98582.23
2018-02-17T05:11:02.552Z,98568.50
2018-02-17T05:13:30.249Z,98574.97
2018-02-17T05:19:16.132Z,98598.08
2018-02-17T05:21:44.027Z,98588.24
2018-02-17T05:24:11.717Z,98599.37
2018-02-17T05:29:50.318Z,98591.39
2018-02-17T05:32:18.885Z,98600.73
2018-02-17T05:34:58.215Z,98594.41
2018-02-17T05:37:26.105Z,98590.68
2018-02-17T05:39:53.781Z,98592.44
2018-02-17T05:42:34.239Z,98582.24
2018-02-17T05:45:02.330Z,98582.95
2018-02-17T05:47:40.319Z,98568.09
2018-02-17T05:50:08.010Z,98558.80
2018-02-17T05:52:35.675Z,98548.98
2018-02-17T05:55:03.399Z,98548.95
2018-02-17T05:57:31.071Z,98552.77
2018-02-17T05:59:58.762Z,98545.16
2018-02-17T06:02:26.443Z,98540.63
2018-02-17T06:04:54.350Z,98536.27
2018-02-17T06:07:22.032Z,98537.98
2018-02-17T06:09:49.709Z,98539.78
2018-02-17T06:12:17.416Z,98531.31
2018-02-17T06:14:45.115Z,98533.59
2018-02-17T06:17:12.798Z,98523.84
2018-02-17T06:19:40.493Z,98529.05
2018-02-17T06:22:08.199Z,98518.40
2018-02-17T06:24:35.886Z,98517.70
2018-02-17T06:27:03.565Z,98510.34
2018-02-17T06:29:31.261Z,98502.89
2018-02-17T06:31:58.934Z,98506.95
2018-02-17T06:34:26.624Z,98504.57
2018-02-17T06:36:54.596Z,98503.80
2018-02-17T06:39:22.437Z,98498.62
2018-02-17T06:41:50.108Z,98496.14
2018-02-17T06:44:17.780Z,98488.16
2018-02-17T06:46:45.497Z,98487.11
2018-02-17T06:49:13.177Z,98487.73
2018-02-17T06:51:40.885Z,98482.17
2018-02-17T06:54:08.567Z,98477.08
2018-02-17T06:56:36.275Z,98484.87
2018-02-17T06:59:03.948Z,98492.75
2018-02-17T07:01:31.609Z,98493.76
2018-02-17T07:03:59.308Z,98494.80
2018-02-17T07:06:26.999Z,98489.44
2018-02-17T07:08:54.698Z,98484.87
2018-02-17T07:11:22.372Z,98485.23
2018-02-17T07:13:50.067Z,98475.52
2018-02-17T07:16:17.742Z,98462.08
2018-02-17T07:18:45.452Z,98453.28
2018-02-17T07:21:13.124Z,98446.86
2018-02-17T07:23:40.800Z,98441.90
2018-02-17T07:26:08.517Z,98435.81
2018-02-17T07:28:36.192Z,98424.11
2018-02-17T07:31:04.158Z,98412.33
2018-02-17T07:33:32.032Z,98403.02
2018-02-17T07:35:59.702Z,98398.50
2018-02-17T07:38:27.410Z,98389.86
2018-02-17T07:40:55.080Z,98368.87
2018-02-17T07:43:22.973Z,98356.31
2018-02-17T07:45:50.676Z,98357.28
2018-02-17T07:48:18.356Z,98347.77
2018-02-17T07:50:46.099Z,98345.53
2018-02-17T07:53:13.768Z,98338.86
2018-02-17T07:55:41.460Z,98335.22
2018-02-17T07:58:09.129Z,98336.95
2018-02-17T08:00:36.839Z,98337.39
2018-02-17T08:03:04.547Z,98328.64
2018-02-17T08:05:32.225Z,98321.66
2018-02-17T08:07:59.920Z,98309.05
2018-02-17T08:10:27.615Z,98309.05
2018-02-17T08:12:55.316Z,98313.28
2018-02-17T08:15:22.985Z,98325.19
2018-02-17T08:17:50.700Z,98326.02
2018-02-17T08:20:18.382Z,98326.24
2018-02-17T08:22:46.287Z,98314.12
2018-02-17T08:25:13.969Z,98312.12
2018-02-17T08:27:41.668Z,98334.53
2018-02-17T08:30:09.500Z,98347.52
2018-02-17T08:32:37.175Z,98365.45
2018-02-17T08:35:04.897Z,98375.98
2018-02-17T08:37:32.577Z,98372.92
2018-02-17T08:40:00.536Z,98376.12
2018-02-17T08:42:28.228Z,98369.37
2018-02-17T08:44:55.914Z,98363.88
2018-02-17T08:47:23.612Z,98352.39
2018-02-17T08:49:51.279Z,98362.70
2018-02-17T08:52:18.968Z,98362.06
2018-02-17T08:54:46.708Z,98354.83
2018-02-17T08:57:14.409Z,98353.11
2018-02-17T08:59:42.101Z,98353.50
2018-02-17T09:02:10.039Z,98352.23
2018-02-17T09:04:37.716Z,98343.06
2018-02-17T09:07:05.388Z,98335.39
2018-02-17T09:09:33.080Z,98333.35
2018-02-17T09:12:00.752Z,98333.73
2018-02-17T09:14:28.471Z,98329.11
2018-02-17T09:16:56.145Z,98330.13
2018-02-17T09:19:23.835Z,98329.45
2018-02-17T09:21:51.515Z,98323.46
2018-02-17T09:24:19.241Z,98320.02
2018-02-17T09:26:46.923Z,98318.29
2018-02-17T09:29:14.603Z,98319.81
2018-02-17T09:31:42.300Z,98316.57
2018-02-17T09:34:09.981Z,98309.36
2018-02-17T09:36:37.673Z,98312.42
2018-02-17T09:39:05.348Z,98305.24
2018-02-17T09:41:33.040Z,98301.80
2018-02-17T09:44:00.702Z,98299.34
2018-02-17T09:46:28.416Z,98292.16
2018-02-17T09:48:56.094Z,98291.38
2018-02-17T09:51:23.770Z,98288.80
2018-02-17T09:53:51.466Z,98291.60
2018-02-17T09:56:19.142Z,98293.91
2018-02-17T09:58:46.886Z,98285.87
2018-02-17T10:01:14.558Z,98280.20
2018-02-17T10:03:42.388Z,98277.39
2018-02-17T10:06:10.069Z,98275.83
2018-02-17T10:08:37.750Z,98260.73
2018-02-17T10:11:05.447Z,98268.11
2018-02-17T10:13:33.152Z,98262.84
2018-02-17T10:16:00.847Z,98249.88
2018-02-17T10:18:28.521Z,98247.96
2018-02-17T10:20:56.537Z,98241.91
2018-02-17T10:23:24.238Z,98248.70
2018-02-17T10:25:51.916Z,98234.84
2018-02-17T10:28:19.620Z,98236.08
2018-02-17T10:30:47.309Z,98235.01
2018-02-17T10:33:15.011Z,98232.00
2018-02-17T10:35:42.687Z,98227.47
2018-02-17T10:38:10.576Z,98231.39
2018-02-17T10:40:38.260Z,98231.02
2018-02-17T10:43:05.936Z,98220.29
2018-02-17T10:45:33.633Z,98216.82
2018-02-17T10:48:01.314Z,98216.63
2018-02-17T10:50:29.021Z,98217.79
2018-02-17T10:52:56.708Z,98214.79
2018-02-17T10:55:30.271Z,98211.19
2018-02-17T10:57:57.947Z,98202.72
2018-02-17T11:00:25.640Z,98204.86
2018-02-17T11:02:53.339Z,98201.64
2018-02-17T11:05:21.027Z,98201.89
2018-02-17T11:07:48.717Z,98202.41
2018-02-17T11:10:16.403Z,98195.66
2018-02-17T11:12:44.302Z,98195.95
2018-02-17T11:15:11.972Z,98196.50
2018-02-17T11:17:39.660Z,98196.05
2018-02-17T11:20:07.377Z,98202.42
2018-02-17T11:22:35.078Z,98200.33
2018-02-17T11:25:02.779Z,98186.09
2018-02-17T11:27:30.459Z,98191.23
2018-02-17T11:29:58.546Z,98192.64
2018-02-17T11:32:26.210Z,98188.83
2018-02-17T11:34:54.774Z,98189.54
2018-02-17T11:37:22.512Z,98192.21
2018-02-17T11:39:50.176Z,98194.35
2018-02-17T11:42:17.901Z,98194.23
2018-02-17T11:44:45.624Z,98198.08
2018-02-17T11:47:13.327Z,98203.14
2018-02-17T11:49:41.606Z,98210.13
2018-02-17T11:52:09.300Z,98210.93
2018-02-17T11:54:36.996Z,98210.98
2018-02-17T11:57:04.889Z,98210.31
2018-02-17T11:59:32.618Z,98205.24
2018-02-17T12:02:00.312Z,98198.45
2018-02-17T12:04:28.174Z,98207.56
2018-02-17T12:06:55.853Z,98211.31
2018-02-17T12:09:23.530Z,98208.37
2018-02-17T12:11:51.244Z,98203.52
2018-02-17T12:14:18.917Z,98199.28
2018-02-17T12:16:46.619Z,98206.33
2018-02-17T12:19:14.306Z,98199.91
2018-02-17T12:21:42.021Z,98201.89
2018-02-17T12:24:09.723Z,98204.61
2018-02-17T12:26:37.407Z,98191.66
2018-02-17T12:29:05.314Z,98187.87
2018-02-17T12:31:32.999Z,98186.91
2018-02-17T12:34:00.677Z,98187.05
2018-02-17T12:36:28.365Z,98183.84
2018-02-17T12:38:56.035Z,98190.92
2018-02-17T12:41:23.731Z,98190.70
2018-02-17T12:43:51.435Z,98187.81
2018-02-17T12:46:19.168Z,98188.71
2018-02-17T12:48:46.856Z,98183.48
2018-02-17T12:51:14.557Z,98193.48
2018-02-17T12:53:42.234Z,98188.09
2018-02-17T12:56:10.696Z,98186.86
2018-02-17T12:58:38.369Z,98188.49
2018-02-17T13:01:06.138Z,98185.88
2018-02-17T13:03:33.827Z,98187.34
2018-02-17T13:06:01.507Z,98175.45
2018-02-17T13:08:29.212Z,98184.77
2018-02-17T13:10:56.880Z,98184.78
2018-02-17T13:13:24.589Z,98179.84
2018-02-17T13:15:52.278Z,98176.63
2018-02-17T13:18:19.944Z,98177.20
2018-02-17T13:20:47.660Z,98176.41
2018-02-17T13:23:15.421Z,98177.34
2018-02-17T13:25:43.155Z,98181.80
2018-02-17T13:28:11.316Z,98173.95
2018-02-17T13:30:39.292Z,98172.92
2018-02-17T13:33:06.997Z,98173.67
2018-02-17T13:35:34.692Z,98175.01
2018-02-17T13:38:02.396Z,98175.41
2018-02-17T13:40:30.074Z,98176.56
2018-02-17T13:42:57.802Z,98175.18
2018-02-17T13:45:25.472Z,98178.16
2018-02-17T13:47:53.268Z,98169.82
2018-02-17T13:50:26.680Z,98173.74
2018-02-17T13:52:54.659Z,98168.22
2018-02-17T13:55:22.326Z,98172.31
2018-02-17T13:57:50.001Z,98179.48
2018-02-17T14:00:17.706Z,98177.94
2018-02-17T14:02:45.423Z,98175.55
2018-02-17T14:05:13.111Z,98181.19
2018-02-17T14:07:40.787Z,98179.41
2018-02-17T14:10:08.709Z,98184.16
2018-02-17T14:12:36.371Z,98189.56
2018-02-17T14:15:04.044Z,98193.41
2018-02-17T14:17:31.757Z,98202.25
2018-02-17T14:19:59.861Z,98201.42
2018-02-17T14:22:27.572Z,98198.44
2018-02-17T14:24:55.180Z,98207.21
2018-02-17T14:27:22.912Z,98198.16
2018-02-17T14:29:50.596Z,98206.66
2018-02-17T14:32:18.275Z,98206.93
2018-02-17T14:34:46.645Z,98212.67
2018-02-17T14:37:14.399Z,98212.27
2018-02-17T14:39:42.090Z,98212.01
2018-02-17T14:42:09.786Z,98217.53
2018-02-17T14:44:38.606Z,98223.24
2018-02-17T14:47:06.367Z,98216.14
2018-02-17T14:49:34.072Z,98218.91
2018-02-17T14:52:01.774Z,98210.73
2018-02-17T14:54:29.455Z,98218.58
2018-02-17T14:56:57.159Z,98217.52
2018-02-17T14:59:24.899Z,98221.38
2018-02-17T15:01:52.842Z,98220.49
2018-02-17T15:04:20.524Z,98223.92
2018-02-17T15:06:48.224Z,98221.99
2018-02-17T15:09:15.923Z,98227.27
2018-02-17T15:11:43.641Z,98223.19
2018-02-17T15:14:11.320Z,98224.70
2018-02-17T15:16:38.988Z,98220.66
2018-02-17T15:19:06.796Z,98220.03
2018-02-17T15:21:34.478Z,98218.72
2018-02-17T15:24:02.153Z,98221.42
2018-02-17T15:26:29.860Z,98222.73
2018-02-17T15:28:57.537Z,98223.84
2018-02-17T15:31:25.252Z,98228.77
2018-02-17T15:33:52.927Z,98238.27
2018-02-17T15:36:20.954Z,98228.83
2018-02-17T15:38:48.835Z,98223.23
2018-02-17T15:41:17.715Z,98219.28
2018-02-17T15:43:45.420Z,98217.16
2018-02-17T15:46:13.133Z,98218.66
2018-02-17T15:48:40.828Z,98237.24
2018-02-17T15:51:08.508Z,98231.39
2018-02-17T15:53:36.354Z,98233.47
2018-02-17T15:56:04.039Z,98229.78
2018-02-17T15:58:31.713Z,98227.28
2018-02-17T16:00:59.436Z,98229.31
2018-02-17T16:03:27.107Z,98232.50
2018-02-17T16:05:54.819Z,98221.89
2018-02-17T16:08:22.498Z,98224.89
2018-02-17T16:10:50.519Z,98231.25
2018-02-17T16:13:18.205Z,98232.19
2018-02-17T16:15:45.881Z,98238.88
2018-02-17T16:18:13.578Z,98240.56
2018-02-17T16:20:41.319Z,98247.13
2018-02-17T16:23:09.070Z,98246.55
2018-02-17T16:25:36.741Z,98255.17
2018-02-17T16:28:04.426Z,98265.23
2018-02-17T16:30:32.124Z,98272.81
2018-02-17T16:32:59.815Z,98284.94
2018-02-17T16:35:27.914Z,98291.23
2018-02-17T16:37:55.588Z,98290.61
2018-02-17T16:40:23.290Z,98300.95
2018-02-17T16:42:50.997Z,98297.16
2018-02-17T16:45:19.032Z,98290.22
2018-02-17T16:47:46.734Z,98285.15
2018-02-17T16:50:14.416Z,98271.32
2018-02-17T16:52:42.470Z,98255.03
2018-02-17T16:55:10.150Z,98257.88
2018-02-17T16:57:37.828Z,98251.03
2018-02-17T17:00:05.532Z,98252.70
2018-02-17T17:02:33.209Z,98260.14
2018-02-17T17:05:00.970Z,98263.44
2018-02-17T17:07:28.663Z,98267.95
2018-02-17T17:09:56.393Z,98264.25
2018-02-17T17:12:24.085Z,98280.94
2018-02-17T17:14:51.812Z,98296.33
2018-02-17T17:17:19.527Z,98293.38
2018-02-17T17:19:47.197Z,98292.94
2018-02-17T17:22:14.892Z,98302.04
2018-02-17T17:24:42.568Z,98307.25
2018-02-17T17:27:10.281Z,98319.75
2018-02-17T17:32:12.004Z,98319.50
2018-02-17T17:34:39.694Z,98318.18
2018-02-17T17:37:07.390Z,98321.30
2018-02-17T17:39:35.069Z,98318.85
2018-02-17T17:42:02.767Z,98322.23
2018-02-17T17:44:30.465Z,98321.35
2018-02-17T17:46:58.417Z,98324.19
2018-02-17T17:49:26.101Z,98325.62
2018-02-17T17:51:53.783Z,98322.98
2018-02-17T17:54:21.494Z,98319.56
2018-02-17T17:56:49.187Z,98325.02
2018-02-17T17:59:16.905Z,98323.19
2018-02-17T18:01:44.592Z,98328.09
2018-02-17T18:04:12.306Z,98325.67
2018-02-17T18:06:40.014Z,98322.52
2018-02-17T18:09:07.760Z,98325.97
2018-02-17T18:11:35.464Z,98329.58
2018-02-17T18:14:03.152Z,98336.58
2018-02-17T18:16:30.867Z,98342.28
2018-02-17T18:18:58.571Z,98346.06
2018-02-17T18:21:26.301Z,98339.38
2018-02-17T18:23:53.979Z,98346.78
2018-02-17T18:26:21.708Z,98354.83
2018-02-17T18:28:49.389Z,98354.23
2018-02-17T18:31:17.068Z,98353.70
2018-02-17T18:33:44.790Z,98349.88
2018-02-17T18:36:12.507Z,98359.05
2018-02-17T18:38:40.260Z,98358.61
2018-02-17T18:41:07.952Z,98356.45
2018-02-17T18:43:36.102Z,98368.44
2018-02-17T18:46:03.873Z,98369.69
2018-02-17T18:48:31.557Z,98373.53
2018-02-17T18:50:59.263Z,98373.91
2018-02-17T18:53:26.950Z,98379.41
2018-02-17T18:55:54.664Z,98376.05
2018-02-17T18:58:22.352Z,98381.70
2018-02-17T19:00:50.089Z,98371.80
2018-02-17T19:03:17.787Z,98373.91
2018-02-17T19:05:45.479Z,98379.96
2018-02-17T19:08:13.206Z,98383.50
2018-02-17T19:10:40.916Z,98383.03
2018-02-17T19:13:08.636Z,98389.08
2018-02-17T19:15:36.329Z,98392.30
2018-02-17T19:18:04.385Z,98394.66
2018-02-17T19:20:32.136Z,98399.82
2018-02-17T19:22:59.812Z,98395.42
2018-02-17T19:25:27.515Z,98402.27
2018-02-17T19:27:55.202Z,98406.42
2018-02-17T19:30:22.925Z,98402.41
2018-02-17T19:32:50.620Z,98409.21
2018-02-17T19:35:18.331Z,98407.80
2018-02-17T19:37:46.015Z,98410.30
2018-02-17T19:40:14.047Z,98407.45
2018-02-17T19:42:41.738Z,98408.56
2018-02-17T19:45:09.447Z,98410.81
2018-02-17T19:47:37.195Z,98412.62
2018-02-17T19:50:04.892Z,98414.83
2018-02-17T19:52:32.608Z,98414.78
2018-02-17T19:55:00.310Z,98420.02
2018-02-17T19:57:28.026Z,98425.61
2018-02-17T19:59:55.729Z,98434.50
2018-02-17T20:02:23.458Z,98436.02
2018-02-17T20:04:51.161Z,98433.59
2018-02-17T20:07:18.831Z,98446.75
2018-02-17T20:09:46.528Z,98449.70
2018-02-17T20:12:14.216Z,98446.00
2018-02-17T20:14:41.933Z,98446.67
2018-02-17T20:17:09.678Z,98454.69
2018-02-17T20:19:37.393Z,98461.28
2018-02-17T20:22:05.076Z,98456.95
2018-02-17T20:24:32.786Z,98465.61
2018-02-17T20:27:00.475Z,98474.78
2018-02-17T20:29:28.171Z,98478.12
2018-02-17T20:31:55.855Z,98478.75
2018-02-17T20:34:23.582Z,98480.23
2018-02-17T20:36:51.256Z,98487.20
2018-02-17T20:39:18.962Z,98490.18
2018-02-17T20:41:46.638Z,98492.69
2018-02-17T20:44:14.358Z,98493.74
2018-02-17T20:46:42.260Z,98494.74
2018-02-17T20:49:10.008Z,98491.14
2018-02-17T20:51:37.699Z,98501.42
2018-02-17T20:54:05.407Z,98493.94
2018-02-17T20:56:33.120Z,98505.11
2018-02-17T20:59:00.855Z,98505.66
2018-02-17T21:01:28.619Z,98512.22
2018-02-17T21:03:56.377Z,98504.83
2018-02-17T21:06:24.049Z,98511.59
2018-02-17T21:08:51.836Z,98515.30
2018-02-17T21:11:19.541Z,98521.54
2018-02-17T21:13:47.317Z,98523.17
2018-02-17T21:16:15.042Z,98527.64
2018-02-17T21:18:42.786Z,98528.42
2018-02-17T21:21:10.533Z,98537.84
2018-02-17T21:23:38.225Z,98533.39
2018-02-17T21:26:06.081Z,98533.84
2018-02-17T21:28:33.760Z,98538.88
2018-02-17T21:31:01.464Z,98544.57
2018-02-17T21:33:29.191Z,98545.17
2018-02-17T21:35:56.893Z,98556.95
2018-02-17T21:38:24.625Z,98558.34
2018-02-17T21:40:52.372Z,98558.75
2018-02-17T21:43:20.325Z,98564.72
2018-02-17T21:45:48.022Z,98566.02
2018-02-17T21:48:15.730Z,98569.31
2018-02-17T21:50:43.432Z,98571.12
2018-02-17T21:53:11.124Z,98573.55
2018-02-17T21:55:38.842Z,98578.47
2018-02-17T21:58:06.531Z,98578.92
2018-02-17T22:00:34.269Z,98581.95
2018-02-17T22:03:01.949Z,98581.23
2018-02-17T22:05:29.632Z,98588.72
2018-02-17T22:07:57.353Z,98593.69
2018-02-17T22:10:25.099Z,98598.65
2018-02-17T22:12:52.811Z,98591.02
2018-02-17T22:15:20.506Z,98597.98
2018-02-17T22:17:48.241Z,98593.16
2018-02-17T22:20:15.920Z,98592.86
2018-02-17T22:22:43.593Z,98595.57
2018-02-17T22:25:11.306Z,98596.67
2018-02-17T22:27:38.981Z,98599.29
2018-02-17T22:30:06.674Z,98604.99
2018-02-17T22:32:34.385Z,98601.07
2018-02-17T22:35:02.078Z,98600.98
2018-02-17T22:37:29.769Z,98605.67
2018-02-17T22:39:57.806Z,98604.26
2018-02-17T22:42:25.471Z,98612.83
2018-02-17T22:44:53.161Z,98612.34
2018-02-17T22:47:21.041Z,98611.81
2018-02-17T22:49:48.748Z,98624.69
2018-02-17T22:52:16.470Z,98623.29
2018-02-17T22:54:44.176Z,98627.20
2018-02-17T22:57:11.889Z,98626.92
2018-02-17T22:59:39.578Z,98629.87
2018-02-17T23:02:07.280Z,98631.48
2018-02-17T23:04:34.994Z,98633.88
2018-02-17T23:07:02.882Z,98637.27
2018-02-17T23:09:30.592Z,98643.64
2018-02-17T23:11:58.329Z,98644.70
2018-02-17T23:14:26.292Z,98644.22
2018-02-17T23:16:53.981Z,98650.72
2018-02-17T23:19:21.664Z,98653.70
2018-02-17T23:21:49.365Z,98648.26
2018-02-17T23:24:17.058Z,98657.88
2018-02-17T23:26:44.774Z,98657.09
2018-02-17T23:29:12.467Z,98667.70
2018-02-17T23:31:40.173Z,98660.05
2018-02-17T23:34:07.877Z,98662.65
2018-02-17T23:36:35.555Z,98659.00
2018-02-17T23:39:03.264Z,98668.34
2018-02-17T23:41:30.948Z,98675.05
2018-02-17T23:43:59.108Z,98669.73
2018-02-17T23:46:26.766Z,98670.23
2018-02-17T23:48:54.442Z,98669.30
2018-02-17T23:51:22.136Z,98671.66
2018-02-17T23:53:49.898Z,98675.86
2018-02-17T23:56:17.593Z,98678.62
2018-02-17T23:58:45.271Z,98679.52
